Time;durP1;ratioP1;P1;durP2;ratioP2;P2;SDS_P1;SDS_P2;PMS_P1;PMS_P2;Temp;Humidity;BMP_temperature;BMP_pressure;BME280_temperature;BME280_humidity;BME280_pressure;Samples;Min_cycle;Max_cycle;Signal;HPM_P1;HPM_P2
2024/01/02 13:09:54;;;;;;;9.18;3.20;;;;;;;;;;5116906;27;20494;-45
2024/01/02 13:12:22;;;;;;;10.73;3.47;;;14.30;99.90;;;;;;5120529;27;20067;-45
2024/01/02 13:14:48;;;;;;;7.15;3.35;;;14.00;99.90;;;;;;5123424;27;20039;-49
2024/01/02 13:17:14;;;;;;;9.05;3.00;;;14.20;99.90;;;;;;5118623;27;20043;-47
2024/01/02 13:19:42;;;;;;;10.25;3.75;;;13.70;99.90;;;;;;5117534;27;20047;-49
2024/01/02 13:25:01;;;;;;;15.40;5.30;;;12.90;99.90;;;;;;5099482;22;20441;-64
2024/01/02 13:27:28;;;;;;;24.73;6.72;;;13.00;1.00;;;;;;5085389;28;20139;-64
2024/01/02 13:29:54;;;;;;;25.08;7.07;;;12.40;4.60;;;;;;5043972;28;20372;-64
2024/01/02 13:32:30;;;;;;;25.17;8.98;;;12.30;99.90;;;;;;5072592;28;20499;-64
2024/01/02 13:35:13;;;;;;;34.45;13.13;;;12.20;99.90;;;;;;5072347;28;20043;-64
2024/01/02 13:37:38;;;;;;;38.25;16.85;;;11.70;75.90;;;;;;5077944;28;20028;-64
2024/01/02 13:40:16;;;;;;;41.90;15.18;;;;;;;;;;5074032;28;20609;-64
2024/01/02 13:42:42;;;;;;;35.78;12.77;;;;;;;;;;5077586;28;20499;-64
2024/01/02 13:45:25;;;;;;;32.40;11.15;;;11.10;99.90;;;;;;5078339;28;20051;-64
2024/01/02 13:47:52;;;;;;;25.50;10.38;;;;;;;;;;5098735;22;20366;-61
2024/01/02 13:50:27;;;;;;;27.15;9.10;;;;;;;;;;5086498;28;20048;-59
2024/01/02 13:53:09;;;;;;;24.00;8.32;;;10.60;1.00;;;;;;5072254;28;20087;-62
2024/01/02 13:55:37;;;;;;;25.88;9.82;;;11.50;1.00;;;;;;5060948;28;20032;-62
2024/01/02 13:58:07;;;;;;;29.02;9.82;;;;;;;;;;5153230;22;20739;-60
2024/01/02 14:00:34;;;;;;;35.47;9.60;;;;;;;;;;5061140;28;20088;-62
2024/01/02 14:03:00;;;;;;;23.65;8.40;;;;;;;;;;5077549;28;20061;-62
2024/01/02 14:05:28;;;;;;;32.10;7.95;;;;;;;;;;5074972;28;20040;-62
2024/01/02 14:07:56;;;;;;;31.00;9.45;;;;;;;;;;5073289;28;20051;-62
2024/01/02 14:10:26;;;;;;;29.25;7.93;;;;;;;;;;5077297;28;20441;-63
2024/01/02 14:12:53;;;;;;;25.58;8.43;;;;;;;;;;5073792;28;20063;-62
2024/01/02 14:15:20;;;;;;;27.63;8.82;;;;;;;;;;5081707;28;20140;-62
2024/01/02 14:18:01;;;;;;;33.22;7.57;;;10.10;99.90;;;;;;5064335;28;20060;-62
2024/01/02 14:20:32;;;;;;;32.53;7.13;;;;;;;;;;5081037;28;20060;-63
2024/01/02 14:23:07;;;;;;;21.25;7.15;;;10.70;99.90;;;;;;5079157;28;20036;-63
2024/01/02 14:25:33;;;;;;;29.70;6.60;;;10.60;1.00;;;;;;5076236;28;20040;-62
2024/01/02 14:27:59;;;;;;;20.58;6.90;;;;;;;;;;5076853;28;20067;-64
2024/01/02 14:30:31;;;;;;;31.85;6.90;;;;;;;;;;5077537;28;20041;-65
2024/01/02 14:33:00;;;;;;;24.77;6.90;;;10.70;1.00;;;;;;5076733;28;20127;-65
2024/01/02 14:35:34;;;;;;;26.05;6.63;;;;;;;;;;5067580;28;20203;-65
2024/01/02 14:38:18;;;;;;;24.83;7.55;;;10.50;1.00;;;;;;5060152;28;20037;-65
2024/01/02 14:41:08;;;;;;;28.20;6.20;;;;;;;;;;5063819;28;20044;-65
2024/01/02 14:43:43;;;;;;;23.95;6.47;;;10.40;3.20;;;;;;5046271;28;20036;-65
2024/01/02 14:46:21;;;;;;;28.13;7.30;;;;;;;;;;5063742;28;20082;-66
2024/01/02 14:49:17;;;;;;;26.30;7.18;;;;;;;;;;5063758;28;20365;-66
2024/01/02 14:51:50;;;;;;;18.63;6.65;;;;;;;;;;5039935;28;20127;-66
2024/01/02 14:54:51;;;;;;;27.75;7.78;;;;;;;;;;5059957;28;20041;-65
2024/01/02 14:57:20;;;;;;;21.45;7.75;;;;;;;;;;5028817;28;20925;-65
2024/01/02 14:59:55;;;;;;;24.50;9.32;;;;;;;;;;5062489;28;20044;-66
2024/01/02 15:02:36;;;;;;;30.85;8.93;;;;;;;;;;5068158;28;20100;-65
2024/01/02 15:05:06;;;;;;;28.10;9.18;;;;;;;;;;5066724;28;20044;-65
2024/01/02 15:07:38;;;;;;;31.42;8.95;;;10.40;99.90;;;;;;5069207;28;20037;-65
2024/01/02 15:10:17;;;;;;;23.85;10.32;;;10.40;99.90;;;;;;5071192;28;20044;-65
2024/01/02 15:13:09;;;;;;;26.95;9.73;;;;;;;;;;5070322;28;20036;-64
2024/01/02 15:15:54;;;;;;;28.52;10.35;;;;;;;;;;5067868;28;20048;-64
2024/01/02 15:18:32;;;;;;;59.47;36.38;;;;;;;;;;5070099;28;20040;-65
2024/01/02 15:21:19;;;;;;;28.23;10.52;;;9.80;99.90;;;;;;5070416;28;20487;-64
2024/01/02 15:23:45;;;;;;;28.02;10.98;;;10.40;1.00;;;;;;5069962;28;20032;-64
2024/01/02 15:26:17;;;;;;;21.23;7.82;;;10.30;1.00;;;;;;5070784;28;20055;-64
2024/01/02 15:28:52;;;;;;;21.25;8.98;;;10.40;1.00;;;;;;5068371;28;20071;-63
2024/01/02 15:31:22;;;;;;;;;;;;;;;;;;5069522;28;20032;-64
2024/01/02 15:33:53;;;;;;;25.75;8.55;;;;;;;;;;5069016;28;19924;-64
2024/01/02 15:36:23;;;;;;;19.70;7.93;;;;;;;;;;5065499;28;20503;-64
2024/01/02 15:39:02;;;;;;;19.70;9.68;;;10.50;99.90;;;;;;5045853;28;20063;-65
2024/01/02 15:41:28;;;;;;;19.42;7.95;;;9.70;99.90;;;;;;5067803;28;20040;-64
2024/01/02 15:44:02;;;;;;;18.13;7.70;;;;;;;;;;5065769;28;20407;-64
2024/01/02 15:46:37;;;;;;;23.00;9.05;;;;;;;;;;5052361;28;20420;-64
2024/01/02 15:49:14;;;;;;;21.48;8.52;;;10.50;99.90;;;;;;5072807;28;20419;-63
2024/01/02 15:51:46;;;;;;;20.63;8.70;;;;;;;;;;5068080;28;20524;-64
2024/01/02 15:54:17;;;;;;;17.27;8.80;;;10.50;99.90;;;;;;5064890;28;20044;-63
2024/01/02 15:56:46;;;;;;;17.52;9.40;;;;;;;;;;5062368;28;20055;-63
2024/01/02 15:59:15;;;;;;;19.63;9.18;;;;;;;;;;5051302;28;20343;-63
2024/01/02 16:01:46;;;;;;;21.80;8.95;;;;;;;;;;5064907;28;20040;-64
2024/01/02 16:04:44;;;;;;;16.75;7.38;;;9.70;99.90;;;;;;5069076;28;20115;-64
2024/01/02 16:07:13;;;;;;;18.55;8.77;;;;;;;;;;5062618;28;20044;-63
2024/01/02 16:09:42;;;;;;;15.60;7.65;;;;;;;;;;5062565;28;20043;-64
2024/01/02 16:12:24;;;;;;;18.17;7.63;;;10.90;99.90;;;;;;5066456;28;20037;-63
2024/01/02 16:15:09;;;;;;;15.35;7.95;;;;;;;;;;5065104;28;20048;-63
2024/01/02 16:17:44;;;;;;;13.50;6.90;;;10.40;99.90;;;;;;5060030;28;20037;-64
2024/01/02 16:20:21;;;;;;;14.70;7.25;;;;;;;;;;5068074;28;20064;-64
2024/01/02 16:22:57;;;;;;;13.15;6.72;;;;;;;;;;5045759;28;20049;-65
2024/01/02 16:25:34;;;;;;;13.30;6.80;;;10.40;99.90;;;;;;5044002;28;20049;-64
2024/01/02 16:28:18;;;;;;;9.48;4.90;;;10.40;99.90;;;;;;5069088;28;20032;-64
2024/01/02 16:30:54;;;;;;;9.57;4.87;;;;;;;;;;5070379;28;20101;-64
2024/01/02 16:33:36;;;;;;;7.95;4.32;;;;;;;;;;5046750;28;20047;-65
2024/01/02 16:36:07;;;;;;;9.38;4.70;;;10.00;99.90;;;;;;5064400;28;20048;-65
2024/01/02 16:38:37;;;;;;;7.00;3.80;;;10.50;99.90;;;;;;5063154;28;20045;-65
2024/01/02 16:41:04;;;;;;;7.20;3.63;;;10.30;99.90;;;;;;5044685;28;20537;-65
2024/01/02 16:43:40;;;;;;;7.53;3.78;;;;;;;;;;5045079;28;20032;-65
2024/01/02 16:46:07;;;;;;;8.05;4.30;;;;;;;;;;5050285;28;20475;-65
2024/01/02 16:48:38;;;;;;;7.80;4.75;;;10.70;99.90;;;;;;5060644;28;20036;-65
2024/01/02 16:51:05;;;;;;;8.02;4.28;;;;;;;;;;5066843;28;20036;-65
2024/01/02 16:53:31;;;;;;;8.15;5.53;;;;;;;;;;5044567;28;20064;-64
2024/01/02 16:55:58;;;;;;;26.30;23.65;;;;;;;;;;5040819;28;20044;-66
2024/01/02 16:58:28;;;;;;;9.63;5.75;;;;;;;;;;5056837;28;20041;-64
2024/01/02 17:00:58;;;;;;;12.90;11.38;;;;;;;;;;5060088;28;20501;-65
2024/01/02 17:03:26;;;;;;;19.77;14.68;;;;;;;;;;5062103;28;21116;-64
2024/01/02 17:05:53;;;;;;;55.15;43.95;;;9.90;99.90;;;;;;5067290;28;20044;-64
2024/01/02 17:08:20;;;;;;;144.13;69.93;;;;;;;;;;5061088;28;20044;-65
2024/01/02 17:10:46;;;;;;;73.40;45.83;;;10.20;99.90;;;;;;5067372;28;20036;-65
2024/01/02 17:13:15;;;;;;;111.05;68.20;;;10.60;99.90;;;;;;5061718;28;20032;-65
2024/01/02 17:15:42;;;;;;;36.70;27.13;;;10.30;99.90;;;;;;5064768;28;20033;-65
2024/01/02 17:18:12;;;;;;;23.13;20.88;;;;;;;;;;5060696;28;20505;-64
2024/01/02 17:20:39;;;;;;;9.05;5.60;;;;;;;;;;5068150;28;20040;-64
2024/01/02 17:23:09;;;;;;;7.55;4.80;;;;;;;;;;5059886;28;20028;-65
2024/01/02 17:25:35;;;;;;;9.82;5.95;;;;;;;;;;5046093;28;20134;-64
2024/01/02 17:28:01;;;;;;;8.77;4.93;;;10.20;99.90;;;;;;5063187;28;20032;-65
2024/01/02 17:30:27;;;;;;;7.43;4.43;;;;;;;;;;5062582;28;20035;-65
2024/01/02 17:32:54;;;;;;;8.85;4.35;;;10.30;99.90;;;;;;5062523;28;20044;-66
2024/01/02 17:35:29;;;;;;;8.63;4.95;;;10.30;99.90;;;;;;5058041;28;20507;-64
2024/01/02 17:37:56;;;;;;;7.80;4.10;;;;;;;;;;5061608;28;20036;-65
2024/01/02 17:40:23;;;;;;;7.55;4.28;;;10.30;99.90;;;;;;5061177;28;20028;-65
2024/01/02 17:42:50;;;;;;;7.95;4.40;;;;;;;;;;5046099;28;20045;-64
2024/01/02 17:45:20;;;;;;;8.82;4.90;;;;;;;;;;5066677;28;20434;-64
2024/01/02 17:47:46;;;;;;;11.10;5.13;;;10.20;99.90;;;;;;5063311;28;20124;-65
2024/01/02 17:50:13;;;;;;;9.02;5.28;;;;;;;;;;5064351;28;20399;-65
2024/01/02 17:52:39;;;;;;;9.77;8.43;;;;;;;;;;5067281;28;20033;-65
2024/01/02 17:55:05;;;;;;;9.40;4.57;;;;;;;;;;5070475;28;20048;-65
2024/01/02 17:57:36;;;;;;;8.18;4.82;;;10.20;99.90;;;;;;5069789;28;20032;-64
2024/01/02 18:00:10;;;;;;;9.48;4.80;;;;;;;;;;5070042;28;20041;-64
2024/01/02 18:02:47;;;;;;;8.77;5.53;;;;;;;;;;5066895;28;20553;-63
2024/01/02 18:05:26;;;;;;;9.13;5.63;;;10.10;1.00;;;;;;5067766;28;20040;-63
2024/01/02 18:08:16;;;;;;;10.32;5.70;;;;;;;;;;5063250;28;20040;-63
2024/01/02 18:10:54;;;;;;;8.75;5.80;;;;;;;;;;5065762;28;20047;-62
2024/01/02 18:13:29;;;;;;;23.85;18.65;;;;;;;;;;5070576;28;20131;-66
2024/01/02 18:16:05;;;;;;;10.45;7.72;;;;;;;;;;5069541;28;20056;-63
2024/01/02 18:18:35;;;;;;;8.88;5.65;;;;;;;;;;5064826;28;20044;-63
2024/01/02 18:21:15;;;;;;;8.98;5.18;;;;;;;;;;5071486;28;20458;-63
2024/01/02 18:23:49;;;;;;;9.00;5.40;;;;;;;;;;5065269;28;20040;-63
2024/01/02 18:26:16;;;;;;;;;;;;;;;;;;5067261;28;20411;-63
2024/01/02 18:28:45;;;;;;;7.95;4.68;;;;;;;;;;5054082;28;19917;-63
2024/01/02 18:31:33;;;;;;;8.68;4.97;;;;;;;;;;5070535;28;20538;-62
2024/01/02 18:34:06;;;;;;;6.70;3.97;;;;;;;;;;5068928;28;20072;-62
2024/01/02 18:36:52;;;;;;;7.97;4.32;;;10.80;99.90;;;;;;5073011;28;20032;-63
2024/01/02 18:39:30;;;;;;;8.07;3.78;;;;;;;;;;5069358;28;20146;-63
2024/01/02 18:42:04;;;;;;;8.30;2.85;;;;;;;;;;5069458;28;20055;-62
2024/01/02 18:44:38;;;;;;;7.57;2.60;;;;;;;;;;5068341;28;20036;-63
2024/01/02 18:47:06;;;;;;;9.20;2.67;;;;;;;;;;5069043;28;20044;-63
2024/01/02 18:49:32;;;;;;;11.73;4.07;;;;;;;;;;5066741;28;20033;-62
2024/01/02 18:52:12;;;;;;;6.15;2.17;;;;;;;;;;5070275;28;20123;-62
2024/01/02 18:54:52;;;;;;;8.50;2.65;;;10.70;1.00;;;;;;5070323;28;20079;-62
2024/01/02 18:57:18;;;;;;;12.65;3.25;;;;;;;;;;5069225;28;20064;-62
2024/01/02 18:59:44;;;;;;;17.85;3.35;;;;;;;;;;5069589;28;20036;-62
2024/01/02 19:02:12;;;;;;;12.38;3.20;;;;;;;;;;5053752;28;20520;-62
2024/01/02 19:04:48;;;;;;;13.15;3.50;;;;;;;;;;5070897;28;20516;-62
2024/01/02 19:07:16;;;;;;;11.60;3.08;;;10.60;1.00;;;;;;5071486;28;20086;-63
2024/01/02 19:09:46;;;;;;;13.90;3.45;;;;;;;;;;5070397;28;20062;-62
2024/01/02 19:12:12;;;;;;;10.90;3.30;;;;;;;;;;5071115;28;20066;-63
2024/01/02 19:14:38;;;;;;;13.30;3.60;;;10.60;7.30;;;;;;5069838;28;20044;-63
2024/01/02 19:17:04;;;;;;;15.55;3.78;;;10.50;31.00;;;;;;5070426;28;20097;-62
2024/01/02 19:19:35;;;;;;;12.85;3.47;;;;;;;;;;5063947;28;20028;-62
2024/01/02 19:22:01;;;;;;;14.75;4.82;;;;;;;;;;5067571;28;20071;-62
2024/01/02 19:24:31;;;;;;;14.20;3.55;;;;;;;;;;5070644;28;20373;-62
2024/01/02 19:27:00;;;;;;;14.65;4.82;;;;;;;;;;5069341;28;20097;-61
2024/01/02 19:29:26;;;;;;;22.63;4.90;;;;;;;;;;5070521;28;20070;-62
2024/01/02 19:31:52;;;;;;;20.25;4.90;;;;;;;;;;5049017;28;20130;-63
2024/01/02 19:34:18;;;;;;;23.70;5.00;;;;;;;;;;5069649;28;20072;-62
2024/01/02 19:36:49;;;;;;;20.75;6.03;;;;;;;;;;5070266;28;20044;-62
2024/01/02 19:39:19;;;;;;;24.88;4.90;;;;;;;;;;5070157;28;20064;-62
2024/01/02 19:41:45;;;;;;;27.20;5.18;;;;;;;;;;5071226;28;20040;-62
2024/01/02 19:44:11;;;;;;;29.88;6.00;;;;;;;;;;5069448;28;20043;-62
2024/01/02 19:46:37;;;;;;;24.33;5.88;;;10.00;99.90;;;;;;5069602;28;20119;-62
2024/01/02 19:49:03;;;;;;;30.45;5.63;;;10.10;99.90;;;;;;5069924;28;20459;-62
2024/01/02 19:51:31;;;;;;;27.30;5.03;;;;;;;;;;5066037;28;20036;-62
2024/01/02 19:53:57;;;;;;;26.50;5.55;;;9.90;99.90;;;;;;5070117;28;20040;-62
2024/01/02 19:56:22;;;;;;;25.92;5.88;;;10.10;99.90;;;;;;5069878;28;20051;-63
2024/01/02 19:58:48;;;;;;;20.80;5.82;;;;;;;;;;5052556;28;20045;-65
2024/01/02 20:01:15;;;;;;;22.67;5.68;;;9.30;27.20;;;;;;5068986;28;20048;-64
2024/01/02 20:03:53;;;;;;;24.42;5.70;;;10.20;29.50;;;;;;5070697;28;20033;-66
2024/01/02 20:06:38;;;;;;;28.40;5.38;;;;;;;;;;5061945;28;20040;-66
2024/01/02 20:09:05;;;;;;;21.23;5.55;;;;;;;;;;5065052;28;20108;-68
2024/01/02 20:11:33;;;;;;;20.10;5.93;;;;;;;;;;5063621;28;20454;-67
2024/01/02 20:13:59;;;;;;;24.48;4.85;;;;;;;;;;5053053;28;20399;-68
2024/01/02 20:16:45;;;;;;;26.65;5.18;;;;;;;;;;5062048;28;20052;-65
2024/01/02 20:19:19;;;;;;;24.23;5.57;;;;;;;;;;5057709;28;20524;-66
2024/01/02 20:21:45;;;;;;;23.38;5.45;;;;;;;;;;5057575;28;20043;-65
2024/01/02 20:24:15;;;;;;;19.27;5.93;;;;;;;;;;5041587;28;20060;-65
2024/01/02 20:26:41;;;;;;;22.48;4.90;;;;;;;;;;5065307;28;20519;-68
2024/01/02 20:29:26;;;;;;;19.90;4.63;;;;;;;;;;5045516;28;20040;-66
2024/01/02 20:31:53;;;;;;;21.63;5.82;;;;;;;;;;5039134;28;20032;-65
2024/01/02 20:34:29;;;;;;;25.17;5.15;;;;;;;;;;5063130;28;20067;-65
2024/01/02 20:36:55;;;;;;;22.10;4.63;;;;;;;;;;5064892;28;20051;-64
2024/01/02 20:39:31;;;;;;;34.58;8.05;;;;;;;;;;5065423;28;20036;-65
2024/01/02 20:42:01;;;;;;;33.60;7.90;;;;;;;;;;5061596;28;20045;-64
2024/01/02 20:44:35;;;;;;;23.90;6.10;;;9.00;99.90;;;;;;5065655;28;20548;-65
2024/01/02 20:47:01;;;;;;;25.05;5.43;;;;;;;;;;5067359;28;20044;-65
2024/01/02 20:49:29;;;;;;;30.90;5.20;;;;;;;;;;5045990;28;20513;-63
2024/01/02 20:51:56;;;;;;;23.45;5.13;;;;;;;;;;5062891;28;20063;-66
2024/01/02 20:54:26;;;;;;;14.45;4.35;;;;;;;;;;5062987;28;20467;-65
2024/01/02 20:56:53;;;;;;;21.98;4.13;;;;;;;;;;5063093;28;20045;-65
2024/01/02 20:59:20;;;;;;;21.08;5.63;;;;;;;;;;5062869;28;20036;-65
2024/01/02 21:01:49;;;;;;;22.75;5.32;;;;;;;;;;5048968;28;20444;-65
2024/01/02 21:04:21;;;;;;;17.35;4.47;;;;;;;;;;5060346;28;20507;-64
2024/01/02 21:06:48;;;;;;;18.48;4.32;;;;;;;;;;5060213;28;20514;-64
2024/01/02 21:09:17;;;;;;;20.35;4.95;;;;;;;;;;5065066;28;20533;-62
2024/01/02 21:11:43;;;;;;;23.92;5.53;;;9.30;99.90;;;;;;5065348;28;20389;-64
2024/01/02 21:14:11;;;;;;;24.38;4.63;;;;;;;;;;5061799;28;20188;-64
2024/01/02 21:16:38;;;;;;;22.88;6.03;;;;;;;;;;5064924;28;20427;-63
2024/01/02 21:19:04;;;;;;;23.35;5.32;;;;;;;;;;5040585;28;20045;-64
2024/01/02 21:21:41;;;;;;;17.42;5.00;;;;;;;;;;5062035;28;20037;-65
2024/01/02 21:24:07;;;;;;;35.85;6.13;;;;;;;;;;5058441;28;20040;-64
2024/01/02 21:26:34;;;;;;;23.17;5.95;;;;;;;;;;5063060;28;20048;-63
2024/01/02 21:29:00;;;;;;;29.85;5.65;;;;;;;;;;5057323;28;20116;-64
2024/01/02 21:31:26;;;;;;;26.38;5.15;;;;;;;;;;5050777;28;20040;-65
2024/01/02 21:33:52;;;;;;;27.17;5.40;;;;;;;;;;5057035;28;20521;-66
2024/01/02 21:36:18;;;;;;;23.17;5.32;;;;;;;;;;5040461;28;20048;-65
2024/01/02 21:39:06;;;;;;;26.48;5.03;;;;;;;;;;5058340;28;20125;-64
2024/01/02 21:41:32;;;;;;;19.48;4.50;;;;;;;;;;5042137;28;20518;-66
2024/01/02 21:44:06;;;;;;;29.63;6.43;;;;;;;;;;5061989;28;20033;-67
2024/01/02 21:46:32;;;;;;;33.85;5.78;;;8.90;99.90;;;;;;5065287;28;20525;-68
2024/01/02 21:48:59;;;;;;;29.42;7.43;;;;;;;;;;5062079;28;20063;-65
2024/01/02 21:51:26;;;;;;;24.90;5.47;;;;;;;;;;5060307;28;20430;-65
2024/01/02 21:53:57;;;;;;;22.73;5.15;;;9.00;96.40;;;;;;5057679;28;20047;-66
2024/01/02 21:56:31;;;;;;;29.70;6.25;;;;;;;;;;5070269;28;20052;-65
2024/01/02 21:58:57;;;;;;;28.20;5.82;;;;;;;;;;5060820;28;20040;-67
2024/01/02 22:01:29;;;;;;;26.80;6.50;;;9.30;99.90;;;;;;5067894;28;20407;-65
2024/01/02 22:03:55;;;;;;;23.92;6.28;;;;;;;;;;5071783;28;20515;-65
2024/01/02 22:06:25;;;;;;;27.27;5.30;;;;;;;;;;5071507;28;20037;-65
2024/01/02 22:08:53;;;;;;;34.08;5.68;;;;;;;;;;5068664;28;20095;-67
2024/01/02 22:11:36;;;;;;;27.98;5.40;;;;;;;;;;5065246;28;20041;-68
2024/01/02 22:14:07;;;;;;;24.85;5.13;;;;;;;;;;5070537;28;20075;-67
2024/01/02 22:16:34;;;;;;;31.88;4.80;;;;;;;;;;5070595;28;20477;-66
2024/01/02 22:19:15;;;;;;;25.15;4.75;;;9.50;99.90;;;;;;5070724;28;20124;-65
2024/01/02 22:21:41;;;;;;;18.65;4.15;;;8.90;99.90;;;;;;5072929;28;20036;-66
2024/01/02 22:24:26;;;;;;;17.48;4.05;;;;;;;;;;5071592;28;20036;-65
2024/01/02 22:26:52;;;;;;;25.05;5.35;;;;;;;;;;5071986;28;20037;-65
2024/01/02 22:29:23;;;;;;;19.13;4.25;;;9.30;99.90;;;;;;5053691;28;20066;-66
2024/01/02 22:31:50;;;;;;;25.88;4.95;;;;;;;;;;5066913;28;20188;-66
2024/01/02 22:34:17;;;;;;;26.42;5.38;;;;;;;;;;5071167;28;20047;-67
2024/01/02 22:36:43;;;;;;;19.85;4.63;;;;;;;;;;5072537;28;20048;-67
2024/01/02 22:39:25;;;;;;;18.38;3.47;;;;;;;;;;5049022;28;20044;-69
2024/01/02 22:41:51;;;;;;;12.73;3.50;;;;;;;;;;5064386;28;20041;-66
2024/01/02 22:44:17;;;;;;;22.80;3.47;;;9.00;99.90;;;;;;5066209;28;20033;-67
2024/01/02 22:46:43;;;;;;;18.75;3.97;;;;;;;;;;5052675;28;20078;-66
2024/01/02 22:49:11;;;;;;;21.52;4.57;;;9.30;99.90;;;;;;5053265;28;20040;-66
2024/01/02 22:51:37;;;;;;;20.75;5.05;;;;;;;;;;5067674;28;20107;-67
2024/01/02 22:54:03;;;;;;;17.98;3.90;;;;;;;;;;5050875;28;20132;-65
2024/01/02 22:56:29;;;;;;;20.80;4.55;;;;;;;;;;5068509;28;20066;-66
2024/01/02 22:58:58;;;;;;;22.30;4.55;;;;;;;;;;5068150;28;20040;-63
2024/01/02 23:01:24;;;;;;;16.70;5.28;;;;;;;;;;5065747;28;20045;-65
2024/01/02 23:03:49;;;;;;;17.38;4.10;;;9.20;99.90;;;;;;5036971;28;20066;-66
2024/01/02 23:06:16;;;;;;;15.82;3.83;;;;;;;;;;5069975;28;20450;-66
2024/01/02 23:08:42;;;;;;;21.70;3.72;;;;;;;;;;5052986;28;20047;-65
2024/01/02 23:11:22;;;;;;;22.67;4.57;;;;;;;;;;5071762;28;20064;-66
2024/01/02 23:13:49;;;;;;;19.08;3.67;;;;;;;;;;5053624;28;20048;-66
2024/01/02 23:16:15;;;;;;;23.23;3.85;;;;;;;;;;5071311;28;20045;-66
2024/01/02 23:19:01;;;;;;;18.52;3.38;;;;;;;;;;5070902;28;20043;-67
2024/01/02 23:21:26;;;;;;;16.23;4.22;;;9.00;99.90;;;;;;5070492;28;20106;-67
2024/01/02 23:23:56;;;;;;;20.58;3.60;;;;;;;;;;5071736;28;20041;-66
2024/01/02 23:26:23;;;;;;;14.98;4.05;;;;;;;;;;5071089;28;20036;-67
2024/01/02 23:28:49;;;;;;;19.08;4.15;;;;;;;;;;5071645;28;20064;-66
2024/01/02 23:31:15;;;;;;;14.18;4.22;;;;;;;;;;5070650;28;20622;-66
2024/01/02 23:33:41;;;;;;;24.15;4.05;;;;;;;;;;5068895;28;20045;-65
2024/01/02 23:36:07;;;;;;;29.08;5.75;;;;;;;;;;5068716;28;20082;-65
2024/01/02 23:38:33;;;;;;;28.33;5.38;;;;;;;;;;5068765;28;20040;-65
2024/01/02 23:40:58;;;;;;;20.40;4.70;;;9.20;99.90;;;;;;5071159;28;20040;-66
2024/01/02 23:43:24;;;;;;;22.80;4.57;;;;;;;;;;5067931;28;20040;-66
2024/01/02 23:45:51;;;;;;;23.77;5.47;;;9.20;99.90;;;;;;5070291;28;20186;-65
2024/01/02 23:48:21;;;;;;;25.25;5.07;;;;;;;;;;5070101;28;20024;-64
2024/01/02 23:51:06;;;;;;;31.40;5.22;;;;;;;;;;5067698;28;20032;-66
2024/01/02 23:53:34;;;;;;;20.97;4.47;;;;;;;;;;5068954;28;20045;-66
2024/01/02 23:56:21;;;;;;;33.33;7.88;;;;;;;;;;5047038;28;20283;-65
2024/01/02 23:58:47;;;;;;;31.10;6.10;;;9.10;99.90;;;;;;5065616;28;20595;-66
